Time;durP1;ratioP1;P1;durP2;ratioP2;P2;SDS_P1;SDS_P2;PMS_P1;PMS_P2;Temp;Humidity;BMP_temperature;BMP_pressure;BME280_temperature;BME280_humidity;BME280_pressure;Samples;Min_cycle;Max_cycle;Signal;HPM_P1;HPM_P2
2023/12/01 00:01:43;;;;;;;16.40;5.80;;;;;;;15.62;30.73;99751.73;105334;1259;60396;-61
2023/12/01 00:04:11;;;;;;;9.60;5.00;;;;;;;15.59;30.78;99737.73;105811;1254;63628;-61
2023/12/01 00:06:38;;;;;;;8.40;4.30;;;;;;;15.57;30.81;99739.46;105177;1258;60542;-60
2023/12/01 00:09:06;;;;;;;14.70;5.60;;;;;;;15.52;30.94;99737.00;105285;1254;63990;-62
2023/12/01 00:11:34;;;;;;;15.60;5.00;;;;;;;15.50;31.02;99732.23;105276;1254;60457;-60
2023/12/01 00:14:01;;;;;;;18.20;4.40;;;;;;;15.50;31.06;99725.90;105271;1254;60332;-61
2023/12/01 00:16:29;;;;;;;13.50;6.90;;;;;;;15.47;31.02;99722.01;105207;1254;63676;-63
2023/12/01 00:18:57;;;;;;;16.20;5.10;;;;;;;15.45;31.05;99718.57;105189;1258;60111;-63
2023/12/01 00:21:25;;;;;;;18.70;5.10;;;;;;;15.43;31.27;99725.27;105192;1257;62514;-61
2023/12/01 00:23:53;;;;;;;14.70;7.30;;;;;;;15.49;31.19;99710.49;106608;1253;60508;-62
2023/12/01 00:26:20;;;;;;;12.60;4.50;;;;;;;15.48;31.11;99699.96;105252;1259;60363;-63
2023/12/01 00:28:53;;;;;;;12.60;5.00;;;;;;;15.44;31.05;99709.09;105077;1254;65126;-62
2023/12/01 00:31:20;;;;;;;9.80;4.90;;;;;;;15.39;31.18;99701.34;105858;1254;61358;-60
2023/12/01 00:33:48;;;;;;;8.90;3.60;;;;;;;15.38;31.24;99690.67;105287;1256;63742;-62
2023/12/01 00:36:16;;;;;;;8.50;2.90;;;;;;;15.44;31.18;99693.35;105253;1256;60591;-62
2023/12/01 00:38:44;;;;;;;11.40;4.00;;;;;;;15.52;31.18;99696.87;105213;1257;60746;-61
2023/12/01 00:41:11;;;;;;;8.40;3.20;;;;;;;15.63;31.24;99698.64;105156;1259;66713;-64
2023/12/01 00:43:39;;;;;;;12.50;4.20;;;;;;;15.71;31.11;99697.08;105103;1259;62180;-65
2023/12/01 00:46:07;;;;;;;9.40;3.30;;;;;;;15.78;31.07;99682.09;105285;1256;62486;-60
2023/12/01 00:48:35;;;;;;;11.40;5.80;;;;;;;15.84;31.10;99671.55;105599;1259;60546;-61
2023/12/01 00:51:03;;;;;;;12.30;4.00;;;;;;;15.84;30.99;99665.59;105267;1254;60467;-61
2023/12/01 00:53:31;;;;;;;12.90;4.30;;;;;;;15.85;30.85;99656.63;105511;1259;64865;-62
2023/12/01 00:55:59;;;;;;;12.70;4.80;;;;;;;15.82;30.94;99654.16;105210;1259;60486;-61
2023/12/01 00:58:26;;;;;;;11.60;5.40;;;;;;;15.77;30.75;99645.77;105298;1255;64271;-61
2023/12/01 01:00:54;;;;;;;11.10;5.50;;;;;;;15.68;30.80;99636.60;105830;1253;60563;-61
2023/12/01 01:03:22;;;;;;;12.70;4.40;;;;;;;15.64;30.64;99632.54;105299;1260;60571;-61
2023/12/01 01:05:51;;;;;;;13.70;3.50;;;;;;;15.63;30.69;99633.37;105957;1258;65022;-60
2023/12/01 01:08:19;;;;;;;12.50;5.10;;;;;;;15.57;30.79;99631.59;106097;1254;61816;-61
2023/12/01 01:10:46;;;;;;;11.00;4.30;;;;;;;15.52;30.72;99631.44;105403;1259;62447;-60
2023/12/01 01:13:14;;;;;;;10.10;3.80;;;;;;;15.48;30.72;99637.10;105270;1255;60467;-61
2023/12/01 01:15:42;;;;;;;8.80;4.10;;;;;;;15.42;30.92;99629.06;105314;1254;60546;-61
2023/12/01 01:18:10;;;;;;;9.20;3.70;;;;;;;15.31;30.93;99603.73;105359;1254;63672;-62
2023/12/01 01:20:38;;;;;;;11.50;4.20;;;;;;;15.27;31.01;99612.16;105331;1254;61299;-61
2023/12/01 01:23:05;;;;;;;11.30;4.80;;;;;;;15.20;30.99;99622.30;105063;1259;63768;-62
2023/12/01 01:25:33;;;;;;;12.60;3.90;;;;;;;15.14;31.00;99625.34;105494;1253;61080;-61
2023/12/01 01:28:01;;;;;;;8.10;3.20;;;;;;;15.11;31.01;99633.79;105704;1258;60409;-62
2023/12/01 01:30:29;;;;;;;9.40;4.10;;;;;;;15.13;30.96;99632.82;105156;1254;63629;-61
2023/12/01 01:32:56;;;;;;;7.30;3.30;;;;;;;15.21;31.06;99623.09;105573;1259;60482;-62
2023/12/01 01:35:25;;;;;;;13.00;4.50;;;;;;;15.34;30.93;99600.45;105828;1259;63683;-62
2023/12/01 01:37:52;;;;;;;9.50;3.50;;;;;;;15.44;30.96;99593.66;106669;1254;60540;-61
2023/12/01 01:40:20;;;;;;;9.20;3.80;;;;;;;15.51;30.87;99592.58;105243;1256;60411;-63
2023/12/01 01:42:48;;;;;;;11.70;4.30;;;;;;;15.59;30.85;99583.84;105292;1254;63681;-61
2023/12/01 01:45:16;;;;;;;15.40;5.20;;;;;;;15.63;30.90;99571.92;105331;1259;60378;-61
2023/12/01 01:47:43;;;;;;;8.30;3.70;;;;;;;15.64;30.70;99559.22;105432;1254;62780;-61
2023/12/01 01:50:11;;;;;;;11.00;4.80;;;;;;;15.67;30.66;99561.58;105529;1259;60549;-62
2023/12/01 01:52:39;;;;;;;14.10;6.90;;;;;;;15.71;30.69;99560.77;105515;1258;60431;-61
2023/12/01 01:55:08;;;;;;;10.60;5.20;;;;;;;15.71;30.60;99550.64;106480;1253;63629;-61
2023/12/01 01:57:38;;;;;;;13.10;5.30;;;;;;;15.67;30.50;99545.48;105497;1254;61340;-61
2023/12/01 02:00:07;;;;;;;12.30;5.30;;;;;;;15.62;30.55;99528.13;105457;1255;63716;-61
2023/12/01 02:02:38;;;;;;;13.00;4.50;;;;;;;15.59;30.48;99514.52;105534;1254;60505;-61
2023/12/01 02:05:13;;;;;;;15.00;6.20;;;;;;;15.53;30.50;99507.05;105252;1254;60578;-61
2023/12/01 02:07:41;;;;;;;11.60;4.50;;;;;;;15.50;30.62;99506.41;106331;1257;65649;-59
2023/12/01 02:10:15;;;;;;;10.70;4.30;;;;;;;15.46;30.68;99503.52;105434;1254;61760;-60
2023/12/01 02:12:44;;;;;;;13.70;4.00;;;;;;;15.46;30.88;99507.03;105224;1259;63783;-60
2023/12/01 02:15:12;;;;;;;11.40;5.30;;;;;;;15.47;30.95;99494.20;105461;1259;60778;-61
2023/12/01 02:17:40;;;;;;;11.20;4.70;;;;;;;15.42;30.88;99479.31;106448;1255;60457;-61
2023/12/01 02:20:14;;;;;;;10.30;3.10;;;;;;;15.33;31.05;99477.16;105621;1253;63624;-63
2023/12/01 02:22:44;;;;;;;7.40;2.80;;;;;;;15.36;31.17;99473.99;106114;1254;63338;-60
2023/12/01 02:25:12;;;;;;;8.10;3.00;;;;;;;15.48;31.16;99467.06;105351;1262;62505;-62
2023/12/01 02:27:39;;;;;;;8.60;3.90;;;;;;;15.56;31.24;99453.50;105473;1254;60588;-62
2023/12/01 02:30:10;;;;;;;10.20;3.30;;;;;;;15.67;31.31;99455.11;105188;1254;60505;-61
2023/12/01 02:32:39;;;;;;;9.70;3.40;;;;;;;15.76;31.28;99463.21;105625;1259;63635;-59
2023/12/01 02:35:09;;;;;;;8.20;4.50;;;;;;;15.82;31.35;99452.13;105456;1254;63317;-63
2023/12/01 02:37:37;;;;;;;11.50;6.30;;;;;;;15.86;31.33;99433.86;106321;1259;62450;-61
2023/12/01 02:40:14;;;;;;;11.90;3.60;;;;;;;15.87;31.42;99433.78;105258;1257;60519;-62
2023/12/01 02:42:48;;;;;;;7.50;3.00;;;;;;;15.95;31.46;99425.34;105360;1254;60332;-62
2023/12/01 02:45:17;;;;;;;12.50;4.60;;;;;;;16.00;31.26;99425.45;106153;1259;65481;-63
2023/12/01 02:47:47;;;;;;;11.90;4.60;;;;;;;15.97;31.27;99422.11;105392;1260;60574;-63
2023/12/01 02:50:18;;;;;;;11.50;4.50;;;;;;;16.09;31.24;99414.62;105238;1255;62643;-63
2023/12/01 02:52:46;;;;;;;13.70;6.10;;;;;;;16.10;31.07;99424.63;105224;1259;60467;-63
2023/12/01 02:55:13;;;;;;;10.50;4.50;;;;;;;15.97;31.23;99424.77;105075;1254;60448;-62
2023/12/01 02:57:41;;;;;;;12.90;4.50;;;;;;;15.77;31.51;99419.27;105327;1254;63686;-62
2023/12/01 03:00:13;;;;;;;10.50;3.70;;;;;;;15.71;31.73;99407.63;105424;1259;62758;-53
2023/12/01 03:02:44;;;;;;;11.10;5.30;;;;;;;15.66;31.85;99401.41;105246;1257;63732;-67
2023/12/01 03:05:12;;;;;;;10.60;4.60;;;;;;;15.65;31.95;99400.67;105209;1254;60588;-61
2023/12/01 03:07:40;;;;;;;8.90;4.10;;;;;;;15.66;31.89;99397.38;105300;1259;60319;-62
2023/12/01 03:10:08;;;;;;;9.10;4.80;;;;;;;15.74;32.05;99387.30;105360;1253;64000;-62
2023/12/01 03:12:36;;;;;;;8.90;3.60;;;;;;;15.85;32.15;99374.59;105509;1254;61813;-60
2023/12/01 03:15:14;;;;;;;9.70;4.10;;;;;;;15.93;31.90;99371.77;106441;1254;63687;-62
2023/12/01 03:17:42;;;;;;;7.50;1.80;;;;;;;15.98;31.94;99378.45;106328;1254;60471;-62
2023/12/01 03:20:10;;;;;;;7.70;4.00;;;;;;;16.08;31.92;99377.40;105251;1258;60409;-61
2023/12/01 03:22:39;;;;;;;10.70;3.40;;;;;;;16.20;31.91;99362.23;106182;1253;63869;-62
2023/12/01 03:25:11;;;;;;;8.90;3.40;;;;;;;16.30;31.84;99347.76;105323;1259;60290;-60
2023/12/01 03:27:40;;;;;;;10.00;3.90;;;;;;;16.38;31.75;99354.46;105302;1254;62531;-60
2023/12/01 03:30:13;;;;;;;14.80;5.10;;;;;;;16.44;31.80;99368.27;105083;1255;60556;-60
2023/12/01 03:32:48;;;;;;;7.40;3.70;;;;;;;16.46;31.72;99339.48;105962;1255;60486;-61
2023/12/01 03:35:18;;;;;;;13.10;4.40;;;;;;;16.44;31.57;99335.83;107677;1258;64857;-62
2023/12/01 03:37:47;;;;;;;10.50;4.10;;;;;;;16.39;31.51;99339.45;105894;1253;61611;-64
2023/12/01 03:40:15;;;;;;;12.30;4.70;;;;;;;16.36;31.75;99323.29;105315;1256;63722;-59
2023/12/01 03:42:47;;;;;;;11.40;5.50;;;;;;;16.37;31.80;99325.02;106124;1259;60575;-66
2023/12/01 03:45:15;;;;;;;14.20;4.50;;;;;;;16.34;31.78;99328.32;105296;1258;60364;-62
2023/12/01 03:47:45;;;;;;;10.00;4.30;;;;;;;16.29;31.71;99323.08;105319;1254;63667;-65
2023/12/01 03:50:13;;;;;;;12.00;5.60;;;;;;;16.27;31.73;99313.86;106256;1254;60380;-64
2023/12/01 03:52:42;;;;;;;10.70;4.30;;;;;;;16.25;31.89;99289.27;105468;1259;63717;-66
2023/12/01 03:55:10;;;;;;;10.70;4.80;;;;;;;16.21;31.97;99280.59;105338;1259;60565;-63
2023/12/01 03:57:38;;;;;;;9.60;3.50;;;;;;;16.14;31.97;99280.56;105553;1257;60417;-63
2023/12/01 04:00:13;;;;;;;8.80;4.00;;;;;;;16.17;32.00;99268.86;105501;1254;63621;-63
2023/12/01 04:02:46;;;;;;;10.00;3.60;;;;;;;16.26;32.04;99266.73;105428;1257;60354;-62
2023/12/01 04:05:18;;;;;;;11.60;3.90;;;;;;;16.38;32.06;99260.73;105295;1254;62534;-63
2023/12/01 04:07:50;;;;;;;;;;;;;;;16.55;32.08;99262.66;107640;1257;60536;-63
2023/12/01 04:10:21;;;;;;;7.40;2.30;;;;;;;16.66;31.96;99267.23;105997;1254;61011;-63
2023/12/01 04:12:49;;;;;;;9.30;2.90;;;;;;;16.75;31.78;99266.16;106614;1259;64961;-60
2023/12/01 04:15:18;;;;;;;9.50;4.30;;;;;;;16.83;31.78;99265.19;105397;1254;61819;-60
2023/12/01 04:17:47;;;;;;;6.80;3.40;;;;;;;16.88;31.76;99251.27;106000;1255;63734;-61
2023/12/01 04:20:27;;;;;;;9.80;4.30;;;;;;;16.89;31.62;99243.08;107676;1255;60449;-58
2023/12/01 04:22:59;;;;;;;15.30;4.70;;;;;;;16.84;31.66;99256.65;105919;1260;60447;-59
2023/12/01 04:25:27;;;;;;;11.90;4.40;;;;;;;16.83;31.69;99261.98;105726;1254;63610;-58
2023/12/01 04:27:56;;;;;;;14.50;5.60;;;;;;;16.79;31.58;99266.56;105191;1259;63005;-59
2023/12/01 04:30:25;;;;;;;11.30;4.90;;;;;;;16.76;31.48;99266.96;105966;1257;62512;-58
2023/12/01 04:32:54;;;;;;;19.00;6.00;;;;;;;16.70;31.55;99248.23;105305;1259;60584;-57
2023/12/01 04:35:26;;;;;;;10.00;4.80;;;;;;;16.66;31.64;99214.71;105840;1254;60535;-59
2023/12/01 04:37:54;;;;;;;11.50;5.20;;;;;;;16.64;31.78;99219.38;105727;1257;64851;-60
2023/12/01 04:40:23;;;;;;;11.00;5.10;;;;;;;16.60;31.74;99230.11;105905;1259;60410;-60
2023/12/01 04:42:51;;;;;;;10.60;4.20;;;;;;;16.54;31.74;99236.92;105859;1258;63754;-57
2023/12/01 04:45:21;;;;;;;13.20;4.90;;;;;;;16.49;31.72;99245.21;105251;1254;60430;-57
2023/12/01 04:47:52;;;;;;;9.70;4.70;;;;;;;16.48;31.87;99242.91;106010;1258;61503;-56
2023/12/01 04:50:22;;;;;;;7.50;3.00;;;;;;;16.54;31.74;99234.63;105978;1255;63727;-56
2023/12/01 04:52:53;;;;;;;12.30;4.00;;;;;;;16.58;31.66;99239.98;105255;1254;61446;-56
2023/12/01 04:55:26;;;;;;;8.40;3.20;;;;;;;16.63;31.58;99234.91;105853;1253;62616;-58
2023/12/01 04:57:58;;;;;;;7.60;3.00;;;;;;;16.69;31.68;99216.66;105810;1259;60389;-57
2023/12/01 05:00:26;;;;;;;9.60;3.40;;;;;;;16.78;31.90;99218.23;106438;1259;60347;-55
2023/12/01 05:03:04;;;;;;;14.50;4.60;;;;;;;16.86;31.72;99226.33;105180;1253;63656;-57
2023/12/01 05:05:34;;;;;;;10.10;5.00;;;;;;;16.92;31.91;99215.42;105447;1259;60594;-61
2023/12/01 05:08:08;;;;;;;11.70;4.70;;;;;;;16.94;31.70;99204.39;105930;1254;63743;-63
2023/12/01 05:10:54;;;;;;;12.80;5.50;;;;;;;16.96;31.78;99224.48;105941;1259;60578;-63
2023/12/01 05:13:23;;;;;;;10.70;4.70;;;;;;;17.01;31.71;99239.08;106309;1259;60299;-63
2023/12/01 05:15:54;;;;;;;11.30;5.00;;;;;;;16.98;31.68;99225.73;105551;1259;65497;-63
2023/12/01 05:18:26;;;;;;;13.50;5.50;;;;;;;16.92;31.32;99213.45;105940;1257;62407;-63
2023/12/01 05:20:57;;;;;;;10.80;4.50;;;;;;;16.84;31.48;99222.35;105668;1255;62492;-58
2023/12/01 05:23:25;;;;;;;12.00;4.80;;;;;;;16.81;31.55;99225.89;107652;1258;60600;-60
2023/12/01 05:25:53;;;;;;;13.00;5.10;;;;;;;16.80;31.49;99220.70;105842;1259;61230;-61
2023/12/01 05:28:21;;;;;;;13.40;6.40;;;;;;;16.77;31.50;99229.40;105080;1259;64919;-59
2023/12/01 05:30:49;;;;;;;10.40;4.60;;;;;;;16.69;31.45;99226.36;105005;1259;60495;-60
2023/12/01 05:33:17;;;;;;;11.90;6.10;;;;;;;16.67;31.47;99219.31;107636;1259;62554;-59
2023/12/01 05:35:45;;;;;;;14.10;6.40;;;;;;;16.63;31.70;99216.20;105300;1255;60440;-60
2023/12/01 05:38:16;;;;;;;11.30;4.00;;;;;;;16.63;31.81;99222.99;105114;1253;60593;-65
2023/12/01 05:40:44;;;;;;;10.40;4.00;;;;;;;16.74;31.68;99229.42;107919;1254;63711;-59
2023/12/01 05:43:13;;;;;;;11.40;4.30;;;;;;;16.82;31.69;99228.07;105217;1260;60781;-58
2023/12/01 05:45:41;;;;;;;12.40;4.80;;;;;;;16.89;31.65;99229.58;102471;1260;3769172;-59
2023/12/01 05:49:17;;;;;;;16.90;7.70;;;;;;;14.91;35.21;99230.34;102265;1290;601072;-60
2023/12/01 05:51:44;;;;;;;12.20;5.90;;;;;;;16.44;32.55;99227.27;104708;1265;59339;-60
2023/12/01 05:54:12;;;;;;;15.60;7.50;;;;;;;16.56;32.29;99224.03;104851;1268;59275;-67
2023/12/01 05:56:40;;;;;;;13.60;6.80;;;;;;;16.57;32.17;99231.02;104366;1267;62050;-60
2023/12/01 05:59:07;;;;;;;19.60;10.30;;;;;;;16.54;32.14;99214.70;104629;1267;60131;-66
2023/12/01 06:01:35;;;;;;;19.00;8.90;;;;;;;16.53;32.26;99197.70;104164;1267;63695;-60
2023/12/01 06:04:08;;;;;;;21.00;8.00;;;;;;;16.50;32.22;99200.28;102062;1264;3568238;-61
2023/12/01 06:06:36;;;;;;;24.80;7.90;;;;;;;16.47;32.26;99197.58;105638;1266;58837;-60
2023/12/01 06:09:04;;;;;;;26.30;11.70;;;;;;;16.42;32.27;99197.46;104974;1262;62044;-60
2023/12/01 06:11:32;;;;;;;34.10;15.80;;;;;;;16.38;32.30;99206.05;104667;1264;60260;-62
2023/12/01 06:14:00;;;;;;;30.80;14.70;;;;;;;16.33;32.42;99216.81;104598;1269;63694;-62
2023/12/01 06:16:28;;;;;;;21.00;9.20;;;;;;;16.27;32.42;99207.86;104658;1264;59701;-62
2023/12/01 06:18:56;;;;;;;16.90;8.90;;;;;;;16.24;32.51;99206.64;106791;1264;59672;-62
2023/12/01 06:21:23;;;;;;;14.90;5.90;;;;;;;16.24;32.57;99218.77;104633;1264;64103;-61
2023/12/01 06:23:51;;;;;;;12.00;6.70;;;;;;;16.31;32.50;99210.88;104705;1263;62008;-63
2023/12/01 06:26:19;;;;;;;21.60;9.10;;;;;;;16.40;32.52;99189.73;104713;1264;62520;-60
2023/12/01 06:28:46;;;;;;;14.10;6.30;;;;;;;16.49;32.65;99189.28;104675;1269;59759;-62
2023/12/01 06:31:14;;;;;;;12.10;6.90;;;;;;;16.64;32.57;99201.87;104824;1263;59833;-60
2023/12/01 06:33:42;;;;;;;18.10;6.70;;;;;;;16.75;32.48;99198.44;104712;1264;62940;-70
2023/12/01 06:36:10;;;;;;;17.40;9.40;;;;;;;16.83;32.42;99201.62;104733;1264;60124;-68
2023/12/01 06:38:37;;;;;;;16.40;8.10;;;;;;;16.88;32.28;99205.25;105350;1264;63774;-60
2023/12/01 06:41:06;;;;;;;16.30;8.40;;;;;;;16.87;32.20;99194.93;104651;1264;59732;-63
2023/12/01 06:43:33;;;;;;;19.70;8.70;;;;;;;16.82;32.11;99191.60;105741;1269;59733;-63
2023/12/01 06:46:02;;;;;;;15.30;7.80;;;;;;;16.76;32.15;99188.08;104541;1262;62877;-62
2023/12/01 06:48:29;;;;;;;16.40;7.70;;;;;;;16.70;32.10;99184.77;105029;1269;60090;-62
2023/12/01 06:50:57;;;;;;;14.00;6.70;;;;;;;16.68;32.17;99183.98;104524;1264;63839;-62
2023/12/01 06:53:25;;;;;;;15.60;7.60;;;;;;;16.64;32.19;99172.42;104424;1268;59733;-62
2023/12/01 06:55:52;;;;;;;14.00;7.10;;;;;;;16.63;32.17;99171.83;104360;1269;59560;-60
2023/12/01 06:58:20;;;;;;;18.20;8.20;;;;;;;16.59;32.23;99175.55;105196;1264;64166;-63
2023/12/01 07:00:48;;;;;;;13.10;6.90;;;;;;;16.50;32.35;99182.31;105253;1264;61474;-63
2023/12/01 07:03:16;;;;;;;14.70;8.00;;;;;;;16.44;32.38;99193.48;104284;1268;62467;-61
2023/12/01 07:05:47;;;;;;;14.90;6.50;;;;;;;16.42;32.57;99191.13;104333;1269;61370;-61
2023/12/01 07:08:15;;;;;;;8.30;3.10;;;;;;;16.45;32.53;99175.56;104473;1264;59765;-61
2023/12/01 07:10:43;;;;;;;10.60;5.00;;;;;;;16.54;32.55;99166.65;104390;1264;64078;-60
2023/12/01 07:13:11;;;;;;;12.50;5.30;;;;;;;16.62;32.60;99167.45;104400;1264;61356;-59
2023/12/01 07:15:40;;;;;;;14.20;5.60;;;;;;;16.74;32.64;99174.49;104353;1269;62475;-59
2023/12/01 07:18:09;;;;;;;15.70;6.70;;;;;;;16.92;32.38;99170.80;105465;1263;61918;-63
2023/12/01 07:20:38;;;;;;;15.80;7.10;;;;;;;17.00;32.34;99182.29;104921;1264;59535;-62
2023/12/01 07:23:06;;;;;;;14.40;6.40;;;;;;;17.03;32.30;99185.30;104672;1264;64238;-63
2023/12/01 07:25:35;;;;;;;13.30;6.00;;;;;;;17.06;32.20;99187.73;104778;1264;60393;-60
2023/12/01 07:28:04;;;;;;;11.40;5.10;;;;;;;16.99;32.11;99187.21;104450;1264;64128;-59
2023/12/01 07:30:31;;;;;;;11.50;5.70;;;;;;;16.91;32.24;99196.16;104844;1267;60063;-61
2023/12/01 07:33:01;;;;;;;12.20;5.10;;;;;;;16.85;32.28;99199.20;104259;1263;59768;-60
2023/12/01 07:35:29;;;;;;;16.90;7.40;;;;;;;16.85;32.29;99190.16;107635;1260;64318;-60
2023/12/01 07:37:56;;;;;;;11.60;4.60;;;;;;;16.90;32.32;99173.29;106148;1260;61806;-61
2023/12/01 07:40:25;;;;;;;17.70;6.70;;;;;;;16.93;32.28;99171.48;104922;1265;62609;-60
2023/12/01 07:42:56;;;;;;;13.60;6.20;;;;;;;16.96;32.32;99182.46;105223;1265;59669;-61
2023/12/01 07:45:29;;;;;;;18.80;6.90;;;;;;;16.95;32.15;99174.40;105951;1261;59531;-63
2023/12/01 07:47:56;;;;;;;14.50;6.00;;;;;;;16.88;32.22;99159.48;104987;1261;64238;-60
2023/12/01 07:50:25;;;;;;;16.00;6.60;;;;;;;16.87;32.30;99155.25;104538;1265;60365;-59
2023/12/01 07:52:55;;;;;;;16.50;6.60;;;;;;;16.98;32.20;99161.54;105161;1266;62459;-59
2023/12/01 07:55:24;;;;;;;11.60;4.40;;;;;;;17.01;32.08;99173.57;105396;1261;59646;-61
2023/12/01 07:57:52;;;;;;;12.70;4.30;;;;;;;16.98;32.02;99173.69;106172;1260;59757;-60
2023/12/01 08:00:19;;;;;;;12.40;4.30;;;;;;;16.91;32.34;99164.44;104610;1260;62878;-61
2023/12/01 08:02:52;;;;;;;11.30;4.80;;;;;;;16.98;32.34;99183.12;104456;1260;61435;-63
2023/12/01 08:05:23;;;;;;;12.10;5.50;;;;;;;17.04;32.17;99172.70;105378;1264;62485;-64
2023/12/01 08:07:52;;;;;;;10.30;4.40;;;;;;;17.10;32.25;99153.56;105329;1266;59619;-65
2023/12/01 08:10:24;;;;;;;20.30;8.00;;;;;;;17.20;32.35;99158.20;104739;1264;59531;-60
2023/12/01 08:12:56;;;;;;;25.30;10.40;;;;;;;17.32;32.20;99171.59;105413;1265;75631;-59
2023/12/01 08:15:26;;;;;;;19.90;8.80;;;;;;;17.25;32.16;99177.82;105617;1260;61622;-62
2023/12/01 08:17:57;;;;;;;20.60;9.70;;;;;;;17.24;32.14;99176.41;104646;1260;63771;-65
2023/12/01 08:20:28;;;;;;;24.40;10.70;;;;;;;17.31;32.03;99182.64;105666;1261;59982;-61
2023/12/01 08:22:57;;;;;;;19.40;8.60;;;;;;;17.32;31.94;99180.60;105932;1265;59958;-61
2023/12/01 08:25:26;;;;;;;15.40;7.90;;;;;;;17.29;31.73;99180.45;107812;1261;64134;-59
2023/12/01 08:27:54;;;;;;;16.40;8.40;;;;;;;17.19;31.78;99185.52;105474;1266;60340;-61
2023/12/01 08:30:22;;;;;;;11.20;5.50;;;;;;;17.11;31.79;99189.23;105450;1263;62632;-58
2023/12/01 08:32:54;;;;;;;15.90;6.90;;;;;;;17.02;31.94;99189.09;105468;1260;59650;-61
2023/12/01 08:35:22;;;;;;;17.40;9.20;;;;;;;16.95;32.07;99175.21;105387;1265;59561;-55
2023/12/01 08:37:51;;;;;;;11.80;5.90;;;;;;;16.90;32.08;99173.99;105538;1261;62836;-57
2023/12/01 08:40:18;;;;;;;17.90;8.10;;;;;;;16.81;32.12;99178.06;105590;1265;60255;-57
2023/12/01 08:42:52;;;;;;;15.60;7.90;;;;;;;16.73;32.15;99170.48;104831;1260;62543;-53
2023/12/01 08:45:21;;;;;;;12.60;6.70;;;;;;;16.64;32.28;99168.53;104819;1260;59676;-61
2023/12/01 08:47:51;;;;;;;12.00;5.90;;;;;;;16.67;32.26;99182.17;105632;1266;59557;-62
2023/12/01 08:50:20;;;;;;;14.10;4.40;;;;;;;16.67;32.25;99183.42;104827;1261;64053;-63
2023/12/01 08:52:48;;;;;;;10.40;6.00;;;;;;;16.70;32.36;99181.54;104702;1264;61338;-59
2023/12/01 08:55:16;;;;;;;10.90;5.50;;;;;;;16.68;32.38;99173.52;105550;1266;62553;-60
2023/12/01 08:57:43;;;;;;;14.40;6.90;;;;;;;16.69;32.51;99184.05;104687;1260;60524;-60
2023/12/01 09:00:14;;;;;;;11.50;5.10;;;;;;;16.76;32.42;99191.27;104809;1266;58148;-61
2023/12/01 09:02:42;;;;;;;12.40;5.80;;;;;;;16.79;32.41;99186.16;104913;1260;64063;-60
2023/12/01 09:05:10;;;;;;;16.70;8.20;;;;;;;16.80;32.45;99179.62;104845;1261;61950;-60
2023/12/01 09:07:38;;;;;;;17.80;6.90;;;;;;;16.80;32.23;99172.67;104787;1261;73649;-61
2023/12/01 09:10:06;;;;;;;15.20;5.90;;;;;;;16.82;32.35;99182.56;104849;1261;59740;-60
2023/12/01 09:12:34;;;;;;;13.50;6.00;;;;;;;16.75;32.34;99182.77;105086;1260;60420;-60
2023/12/01 09:15:02;;;;;;;17.00;6.90;;;;;;;16.67;32.33;99198.84;104764;1267;75486;-61
2023/12/01 09:17:30;;;;;;;18.20;7.40;;;;;;;16.59;32.39;99185.81;105333;1261;62050;-60
2023/12/01 09:19:58;;;;;;;16.80;7.70;;;;;;;16.54;32.52;99183.77;106127;1261;64458;-63
2023/12/01 09:22:26;;;;;;;14.10;6.70;;;;;;;16.54;32.57;99189.12;105389;1264;59739;-58
2023/12/01 09:24:54;;;;;;;15.50;7.20;;;;;;;16.54;32.51;99194.92;105509;1266;59734;-62
2023/12/01 09:27:22;;;;;;;19.10;10.30;;;;;;;16.53;32.56;99199.04;104753;1266;66444;-60
2023/12/01 09:29:51;;;;;;;14.90;6.60;;;;;;;16.51;32.61;99187.66;106404;1260;60286;-60
2023/12/01 09:32:19;;;;;;;14.50;6.00;;;;;;;16.44;32.67;99180.71;104893;1263;74875;-60
2023/12/01 09:34:47;;;;;;;10.00;4.10;;;;;;;16.49;32.63;99188.06;104917;1262;59887;-59
2023/12/01 09:37:15;;;;;;;11.90;4.90;;;;;;;16.58;32.52;99193.57;104762;1266;59652;-60
2023/12/01 09:39:42;;;;;;;13.60;6.50;;;;;;;16.66;32.48;99185.06;104988;1261;62973;-60
2023/12/01 09:42:12;;;;;;;13.30;6.10;;;;;;;16.74;32.50;99180.66;105003;1263;61495;-57
2023/12/01 09:44:40;;;;;;;12.00;4.80;;;;;;;16.83;32.52;99159.63;104836;1260;62441;-60
2023/12/01 09:47:10;;;;;;;14.60;6.40;;;;;;;17.01;32.51;99159.68;104907;1264;59768;-60
2023/12/01 09:49:38;;;;;;;15.40;6.80;;;;;;;17.13;32.35;99168.95;105015;1266;62747;-61
2023/12/01 09:52:05;;;;;;;13.30;6.50;;;;;;;17.14;32.24;99165.65;105087;1266;64144;-60
2023/12/01 09:54:33;;;;;;;12.70;6.30;;;;;;;17.13;32.18;99173.42;105183;1264;61565;-59
2023/12/01 09:57:04;;;;;;;27.10;18.50;;;;;;;17.11;32.14;99174.95;104821;1261;62768;-60
2023/12/01 09:59:35;;;;;;;15.60;8.20;;;;;;;17.07;32.04;99180.54;104792;1266;60562;-61
2023/12/01 10:02:03;;;;;;;17.50;6.80;;;;;;;17.07;32.08;99189.06;105204;1259;60507;-61
2023/12/01 10:04:32;;;;;;;13.30;6.40;;;;;;;17.05;32.12;99202.76;105206;1261;67082;-55
2023/12/01 10:07:00;;;;;;;20.40;9.10;;;;;;;16.99;32.06;99214.98;106057;1264;63702;-63
2023/12/01 10:09:36;;;;;;;15.00;7.70;;;;;;;16.91;32.12;99220.14;105325;1266;62613;-63
2023/12/01 10:12:10;;;;;;;26.10;19.20;;;;;;;16.83;32.29;99223.71;105065;1260;60597;-59
2023/12/01 10:14:41;;;;;;;17.70;9.50;;;;;;;16.88;32.38;99216.00;105863;1260;60520;-57
2023/12/01 10:17:12;;;;;;;15.50;6.90;;;;;;;17.01;32.32;99200.84;108755;1261;65116;-56
2023/12/01 10:19:49;;;;;;;13.80;5.60;;;;;;;17.12;32.03;99206.56;108753;1260;62218;-57
2023/12/01 10:22:17;;;;;;;13.70;6.30;;;;;;;17.17;31.88;99197.39;108770;1260;65815;-57
2023/12/01 10:25:03;;;;;;;12.80;5.10;;;;;;;17.34;31.89;99180.20;108718;1261;58222;-55
2023/12/01 10:27:31;;;;;;;19.30;8.20;;;;;;;17.49;31.86;99195.24;106901;1262;58377;-57
2023/12/01 10:30:13;;;;;;;15.10;7.90;;;;;;;17.48;31.84;99205.19;105139;1263;76188;-56
2023/12/01 10:32:42;;;;;;;18.00;7.30;;;;;;;17.51;31.71;99195.38;106535;1265;60640;-56
2023/12/01 10:35:09;;;;;;;20.20;7.00;;;;;;;17.50;31.57;99193.98;104817;1263;62546;-53
2023/12/01 10:37:37;;;;;;;13.70;7.50;;;;;;;17.45;31.53;99185.30;104702;1262;60756;-54
2023/12/01 10:40:06;;;;;;;26.90;17.70;;;;;;;17.43;31.35;99193.01;104675;1266;60634;-55
2023/12/01 10:42:34;;;;;;;18.50;7.40;;;;;;;17.29;31.27;99213.34;105175;1260;64114;-54
2023/12/01 10:45:03;;;;;;;16.10;7.60;;;;;;;17.10;31.37;99232.23;105228;1263;60403;-55
2023/12/01 10:47:30;;;;;;;16.50;6.40;;;;;;;16.93;31.66;99240.31;105998;1260;63773;-56
2023/12/01 10:49:59;;;;;;;15.30;6.90;;;;;;;16.78;31.92;99231.27;104711;1261;60481;-55
2023/12/01 10:52:27;;;;;;;16.90;7.70;;;;;;;16.67;32.13;99219.55;106055;1266;60537;-56
2023/12/01 10:54:55;;;;;;;12.60;6.40;;;;;;;16.65;32.23;99232.16;104784;1261;65748;-57
2023/12/01 10:57:39;;;;;;;14.80;6.60;;;;;;;16.59;32.22;99231.33;104754;1266;61516;-56
2023/12/01 11:00:19;;;;;;;16.30;7.30;;;;;;;16.57;32.36;99217.23;107480;1265;62539;-53
2023/12/01 11:02:47;;;;;;;20.50;8.70;;;;;;;16.68;32.39;99214.58;107208;1261;61585;-54
2023/12/01 11:05:16;;;;;;;15.60;6.50;;;;;;;16.75;32.19;99218.88;104959;1263;60299;-53
2023/12/01 11:08:08;;;;;;;17.80;6.70;;;;;;;16.83;32.21;99214.91;104758;1261;65096;-56
2023/12/01 11:10:45;;;;;;;14.40;7.40;;;;;;;16.99;32.20;99207.41;104678;1266;61539;-53
2023/12/01 11:13:29;;;;;;;14.90;7.20;;;;;;;17.10;32.07;99208.67;104570;1265;63771;-54
2023/12/01 11:15:57;;;;;;;14.90;6.50;;;;;;;17.33;31.70;99230.91;107333;1255;60508;-54
2023/12/01 11:18:25;;;;;;;16.00;8.50;;;;;;;17.33;31.65;99242.61;104932;1263;60358;-55
2023/12/01 11:20:54;;;;;;;16.70;8.90;;;;;;;17.14;31.80;99254.77;105700;1260;65042;-56
2023/12/01 11:23:23;;;;;;;14.50;8.50;;;;;;;17.11;31.92;99264.00;105794;1259;60579;-54
2023/12/01 11:25:55;;;;;;;15.10;7.60;;;;;;;17.10;31.94;99265.59;106548;1260;64120;-54
2023/12/01 11:28:43;;;;;;;18.40;7.90;;;;;;;16.96;31.90;99263.20;105647;1263;59559;-55
2023/12/01 11:33:53;;;;;;;19.50;7.70;;;;;;;16.71;32.25;99262.91;105074;1260;63864;-54